Time;durP1;ratioP1;P1;durP2;ratioP2;P2;SDS_P1;SDS_P2;PMS_P1;PMS_P2;Temp;Humidity;BMP_temperature;BMP_pressure;BME280_temperature;BME280_humidity;BME280_pressure;Samples;Min_cycle;Max_cycle;Signal;HPM_P1;HPM_P2
2022/01/24 00:00:53;;;;;;;31.33;18.37;;;;;;;;;;5003586;28;20255;-63
2022/01/24 00:03:19;;;;;;;36.73;20.57;;;;;;;;;;4995146;28;20213;-63
2022/01/24 00:05:44;;;;;;;40.20;23.08;;;;;;;;;;4994897;28;20225;-63
2022/01/24 00:08:09;;;;;;;44.53;24.43;;;;;;;;;;4994568;28;20582;-63
2022/01/24 00:10:37;;;;;;;46.40;27.30;;;;;;;;;;4995585;28;20213;-63
2022/01/24 00:13:49;;;;;;;44.70;26.57;;;;;;;;;;4994294;28;20213;-64
2022/01/24 00:16:13;;;;;;;39.58;23.17;;;;;;;;;;4995221;28;20219;-63
2022/01/24 00:26:47;;;;;;;46.70;27.88;;;;;;;;;;5014444;28;20624;-63
2022/01/24 00:29:13;;;;;;;45.15;27.65;;;;;;;;;;5014370;28;20209;-63
2022/01/24 00:31:38;;;;;;;48.00;28.90;;;;;;;;;;4997269;28;20649;-63
2022/01/24 00:34:04;;;;;;;48.33;27.83;;;;;;;;;;5013564;28;20240;-63
2022/01/24 00:36:29;;;;;;;47.45;28.38;;;;;;;;;;5014785;28;20243;-63
2022/01/24 00:38:55;;;;;;;49.13;28.57;;;;;;;;;;5014932;28;20585;-63
2022/01/24 00:41:21;;;;;;;50.57;29.60;;;;;;;;;;5013158;28;21889;-64
2022/01/24 00:44:17;;;;;;;48.40;29.30;;;;;;;;;;5014575;28;20742;-63
2022/01/24 00:46:46;;;;;;;46.87;28.27;;;;;;;;;;5013900;28;20671;-63
2022/01/24 00:57:02;;;;;;;41.97;24.55;;;;;;;;;;5012951;28;20216;-64
2022/01/24 00:59:27;;;;;;;39.17;23.37;;;;;;;;;;5014169;28;20220;-63
2022/01/24 01:01:52;;;;;;;39.53;23.57;;;;;;;;;;4995046;28;20229;-63
2022/01/24 01:04:20;;;;;;;37.87;23.07;;;;;;;;;;4993314;28;20618;-63
2022/01/24 01:06:46;;;;;;;39.83;24.10;;;;;;;;;;4977714;28;20230;-63
2022/01/24 01:20:06;;;;;;;41.93;25.07;;;;;;;;;;4993969;28;20715;-64
2022/01/24 01:22:32;;;;;;;41.17;26.75;;;;;;;;;;4981221;28;20224;-63
2022/01/24 01:24:57;;;;;;;41.67;25.65;;;;;;;;;;5013024;28;20212;-63
2022/01/24 01:27:29;;;;;;;42.85;25.80;;;;;;;;;;5013140;28;20634;-63
2022/01/24 01:30:03;;;;;;;42.53;24.63;;;;;;;;;;5013656;28;20208;-63
2022/01/24 01:32:55;;;;;;;43.95;25.65;;;;;;;;;;5012878;28;20208;-63
2022/01/24 01:35:32;;;;;;;45.57;26.73;;;;;;;;;;5013105;28;20219;-63
2022/01/24 01:52:19;;;;;;;44.47;26.70;;;;;;;;;;5012981;28;20279;-64
2022/01/24 01:54:48;;;;;;;49.75;29.33;;;;;;;;;;5012898;28;20211;-63
2022/01/24 01:57:14;;;;;;;50.13;29.20;;;;;;;;;;4998989;28;20224;-63
2022/01/24 01:59:40;;;;;;;49.70;30.33;;;;;;;;;;4993658;28;20216;-63
2022/01/24 02:02:05;;;;;;;49.77;29.07;;;;;;;;;;4992870;28;20688;-63
2022/01/24 02:04:30;;;;;;;47.87;30.10;;;;;;;;;;4976222;28;20600;-63
2022/01/24 02:06:56;;;;;;;53.43;31.40;;;;;;;;;;4992775;28;20221;-63
2022/01/24 02:09:21;;;;;;;55.20;30.43;;;;;;;;;;4993035;28;20598;-63
2022/01/24 02:11:48;;;;;;;51.88;29.60;;;;;;;;;;4975821;28;20221;-63
2022/01/24 02:14:17;;;;;;;53.27;30.60;;;;;;;;;;4992219;28;20292;-63
2022/01/24 02:21:48;;;;;;;55.40;30.03;;;;;;;;;;4973014;28;20233;-63
2022/01/24 02:24:15;;;;;;;51.30;30.35;;;;;;;;;;5009597;28;20695;-63
2022/01/24 02:26:40;;;;;;;51.67;30.42;;;;;;;;;;4994701;28;20221;-63
2022/01/24 02:29:15;;;;;;;51.57;30.23;;;;;;;;;;5011740;28;20299;-64
2022/01/24 02:31:45;;;;;;;49.87;30.17;;;;;;;;;;4996437;28;20208;-63
2022/01/24 02:34:19;;;;;;;48.10;30.30;;;;;;;;;;5011389;28;20216;-64
2022/01/24 02:36:44;;;;;;;50.75;30.40;;;;;;;;;;5013011;28;20204;-63
2022/01/24 02:39:41;;;;;;;50.00;30.23;;;;;;;;;;5012345;28;20209;-63
2022/01/24 02:50:15;;;;;;;53.27;30.30;;;;;;;;;;5012167;28;20262;-63
2022/01/24 02:52:40;;;;;;;47.85;27.70;;;;;;;;;;5012556;28;20259;-63
2022/01/24 02:55:05;;;;;;;46.13;28.57;;;;;;;;;;5011342;28;20687;-63
2022/01/24 02:57:30;;;;;;;48.23;29.97;;;;;;;;;;4995025;28;20212;-63
2022/01/24 02:59:56;;;;;;;48.00;28.47;;;;;;;;;;5008696;28;20213;-63
2022/01/24 03:02:21;;;;;;;46.07;29.47;;;;;;;;;;4991486;28;20209;-63
2022/01/24 03:04:46;;;;;;;49.08;30.23;;;;;;;;;;4992801;28;20581;-63
2022/01/24 03:07:11;;;;;;;48.73;29.37;;;;;;;;;;4975245;28;20213;-63
2022/01/24 03:09:37;;;;;;;46.90;28.67;;;;;;;;;;4992169;28;20295;-63
2022/01/24 03:12:13;;;;;;;46.93;27.63;;;;;;;;;;4974792;28;20239;-63
2022/01/24 03:14:38;;;;;;;45.03;28.50;;;;;;;;;;4992500;28;20213;-63
2022/01/24 03:17:04;;;;;;;49.60;28.63;;;;;;;;;;4982836;28;20241;-63
2022/01/24 03:19:29;;;;;;;44.83;26.93;;;;;;;;;;4973025;28;20206;-63
2022/01/24 03:21:55;;;;;;;47.93;28.97;;;;;;;;;;4973399;28;20230;-64
2022/01/24 03:24:20;;;;;;;48.73;28.17;;;;;;;;;;4992494;28;20229;-63
2022/01/24 03:26:45;;;;;;;47.50;30.53;;;;;;;;;;4994841;28;20217;-63
2022/01/24 03:29:11;;;;;;;46.60;29.47;;;;;;;;;;5011619;28;20223;-63
2022/01/24 03:31:36;;;;;;;47.10;28.07;;;;;;;;;;4993708;28;20775;-63
2022/01/24 03:34:01;;;;;;;47.10;28.60;;;;;;;;;;5011508;28;20212;-64
2022/01/24 03:36:27;;;;;;;47.50;28.23;;;;;;;;;;4994882;28;20216;-63
2022/01/24 03:38:52;;;;;;;47.93;29.53;;;;;;;;;;5011450;28;20299;-63
2022/01/24 03:41:17;;;;;;;46.20;28.07;;;;;;;;;;4994100;28;20574;-63
2022/01/24 03:43:43;;;;;;;47.63;29.43;;;;;;;;;;5015005;28;20215;-63
2022/01/24 03:46:13;;;;;;;46.67;28.85;;;;;;;;;;5014870;28;20587;-63
2022/01/24 03:48:49;;;;;;;47.60;28.40;;;;;;;;;;5015711;28;20311;-63
2022/01/24 03:51:15;;;;;;;47.33;29.87;;;;;;;;;;4998479;28;20695;-63
2022/01/24 03:53:40;;;;;;;47.37;29.33;;;;;;;;;;4998086;28;20205;-63
2022/01/24 03:56:06;;;;;;;46.20;28.53;;;;;;;;;;5014982;28;20347;-63
2022/01/24 03:58:31;;;;;;;48.27;27.97;;;;;;;;;;4997118;28;20216;-63
2022/01/24 04:00:57;;;;;;;46.47;28.17;;;;;;;;;;4985996;28;20228;-63
2022/01/24 04:03:22;;;;;;;49.00;28.75;;;;;;;;;;4995289;28;20209;-63
2022/01/24 04:05:47;;;;;;;46.25;27.95;;;;;;;;;;4995155;28;20740;-63
2022/01/24 04:08:13;;;;;;;48.80;29.23;;;;;;;;;;4995447;28;20677;-63
2022/01/24 04:10:42;;;;;;;48.47;29.17;;;;;;;;;;4995660;28;20228;-63
2022/01/24 04:13:21;;;;;;;46.83;28.27;;;;;;;;;;4994363;28;20695;-63
2022/01/24 04:15:59;;;;;;;47.83;28.45;;;;;;;;;;4979900;28;21024;-63
2022/01/24 04:18:34;;;;;;;49.57;28.40;;;;;;;;;;4975788;28;20209;-63
2022/01/24 04:21:19;;;;;;;45.10;28.37;;;;;;;;;;4975150;28;20300;-63
2022/01/24 04:23:48;;;;;;;45.17;28.13;;;;;;;;;;4989774;28;20225;-63
2022/01/24 04:26:13;;;;;;;41.63;27.83;;;;;;;;;;4996853;28;20208;-63
2022/01/24 04:28:39;;;;;;;47.00;29.00;;;;;;;;;;4997641;28;20612;-63
2022/01/24 04:31:04;;;;;;;45.63;27.10;;;;;;;;;;5014255;28;20632;-63
2022/01/24 04:33:29;;;;;;;46.97;27.53;;;;;;;;;;5013952;28;20287;-63
2022/01/24 04:35:55;;;;;;;43.03;27.57;;;;;;;;;;4997308;28;20209;-63
2022/01/24 04:38:20;;;;;;;46.33;28.50;;;;;;;;;;5014804;28;20648;-63
2022/01/24 04:40:45;;;;;;;46.93;28.43;;;;;;;;;;5013820;28;20307;-63
2022/01/24 04:46:01;;;;;;;46.80;28.73;;;;;;;;;;5014537;28;20219;-63
2022/01/24 04:51:27;;;;;;;46.87;28.47;;;;;;;;;;5014264;28;20270;-63
2022/01/24 04:54:25;;;;;;;45.57;27.73;;;;;;;;;;4999087;28;20209;-63
2022/01/24 04:56:38;;;;;;;43.97;27.75;;;;;;;;;;5013834;28;20228;-63
2022/01/24 04:59:04;;;;;;;44.17;27.33;;;;;;;;;;5013816;28;20216;-63
2022/01/24 05:01:29;;;;;;;44.00;27.30;;;;;;;;;;4997425;28;20232;-63
2022/01/24 05:03:54;;;;;;;43.20;26.73;;;;;;;;;;4977336;28;20688;-63
2022/01/24 05:06:19;;;;;;;41.33;26.87;;;;;;;;;;4994147;28;20213;-63
2022/01/24 05:08:45;;;;;;;43.53;26.67;;;;;;;;;;4993876;28;20209;-63
2022/01/24 05:11:15;;;;;;;41.93;26.50;;;;;;;;;;4976656;28;20320;-63
2022/01/24 05:24:22;;;;;;;39.60;25.77;;;;;;;;;;4973548;28;20232;-63
2022/01/24 05:26:48;;;;;;;37.83;23.60;;;;;;;;;;4974768;28;20297;-63
2022/01/24 05:29:13;;;;;;;37.33;23.80;;;;;;;;;;4973544;28;20347;-64
2022/01/24 05:31:38;;;;;;;31.93;22.00;;;;;;;;;;4974744;28;20221;-63
2022/01/24 05:34:04;;;;;;;27.90;20.00;;;;;;;;;;4974155;28;20304;-63
2022/01/24 05:36:29;;;;;;;29.02;20.00;;;;;;;;;;4973936;28;20681;-63
2022/01/24 05:38:54;;;;;;;27.77;18.40;;;;;;;;;;4974954;28;20244;-63
2022/01/24 05:41:19;;;;;;;23.97;16.97;;;;;;;;;;4974110;28;20674;-63
2022/01/24 05:43:45;;;;;;;23.97;16.40;;;;;;;;;;4973631;28;20603;-63
2022/01/24 05:46:10;;;;;;;25.37;17.47;;;;;;;;;;4973939;28;20209;-63
2022/01/24 05:48:35;;;;;;;24.07;16.37;;;;;;;;;;4974146;28;20209;-63
2022/01/24 05:51:01;;;;;;;21.30;15.13;;;;;;;;;;4973173;28;20210;-63
2022/01/24 05:53:26;;;;;;;22.83;16.03;;;;;;;;;;4974183;28;20224;-63
2022/01/24 05:55:53;;;;;;;21.70;14.93;;;;;;;;;;4957021;28;20245;-63
2022/01/24 05:58:18;;;;;;;22.40;16.13;;;;;;;;;;4972992;28;20578;-63
2022/01/24 06:00:43;;;;;;;19.87;14.23;;;;;;;;;;4966684;28;20229;-63
2022/01/24 06:03:09;;;;;;;22.63;15.00;;;;;;;;;;4992790;28;20295;-63
2022/01/24 06:05:34;;;;;;;22.37;14.90;;;;;;;;;;4992347;28;20244;-63
2022/01/24 06:07:59;;;;;;;22.23;15.27;;;;;;;;;;4993435;28;20288;-63
2022/01/24 06:10:24;;;;;;;21.50;14.60;;;;;;;;;;4993069;28;20256;-63
2022/01/24 06:12:50;;;;;;;22.47;14.70;;;;;;;;;;4975219;28;20236;-63
2022/01/24 06:15:15;;;;;;;23.27;14.60;;;;;;;;;;4992979;28;20241;-63
2022/01/24 06:17:40;;;;;;;20.90;14.77;;;;;;;;;;4962310;28;20225;-64
2022/01/24 06:20:06;;;;;;;21.17;14.60;;;;;;;;;;4972691;28;20305;-63
2022/01/24 06:22:31;;;;;;;21.37;15.07;;;;;;;;;;4982589;28;20224;-63
2022/01/24 06:24:56;;;;;;;22.33;15.17;;;;;;;;;;4995292;28;20213;-63
2022/01/24 06:27:21;;;;;;;21.70;15.87;;;;;;;;;;5011629;28;20231;-63
2022/01/24 06:29:47;;;;;;;21.40;15.67;;;;;;;;;;4995044;28;20244;-63
2022/01/24 06:32:12;;;;;;;21.43;15.50;;;;;;;;;;5012322;28;20300;-63
2022/01/24 06:34:37;;;;;;;21.70;14.97;;;;;;;;;;5011923;28;20212;-63
2022/01/24 06:37:03;;;;;;;20.40;14.70;;;;;;;;;;5012420;28;20224;-63
2022/01/24 06:39:29;;;;;;;21.73;15.17;;;;;;;;;;5012859;28;20299;-63
2022/01/24 06:42:10;;;;;;;20.10;14.53;;;;;;;;;;5011804;28;20228;-63
2022/01/24 06:44:35;;;;;;;18.30;13.83;;;;;;;;;;5012477;28;20208;-63
2022/01/24 06:47:00;;;;;;;21.10;15.03;;;;;;;;;;5011460;28;20690;-63
2022/01/24 06:49:25;;;;;;;20.60;14.97;;;;;;;;;;5012286;28;20339;-63
2022/01/24 06:51:51;;;;;;;22.03;14.77;;;;;;;;;;5012712;28;20271;-63
2022/01/24 06:54:16;;;;;;;19.53;14.03;;;;;;;;;;5011177;28;20247;-63
2022/01/24 06:56:41;;;;;;;20.70;14.13;;;;;;;;;;4995158;28;20295;-63
2022/01/24 06:59:08;;;;;;;19.60;13.97;;;;;;;;;;5011783;28;20566;-63
2022/01/24 07:01:33;;;;;;;17.83;13.27;;;;;;;;;;4995108;28;20231;-63
2022/01/24 07:03:59;;;;;;;17.08;13.18;;;;;;;;;;4992623;28;20216;-63
2022/01/24 07:06:24;;;;;;;18.33;13.47;;;;;;;;;;4975117;28;20209;-63
2022/01/24 07:08:49;;;;;;;19.13;14.13;;;;;;;;;;4992002;28;20566;-63
2022/01/24 07:11:14;;;;;;;19.47;14.50;;;;;;;;;;4992165;28;20304;-62
2022/01/24 07:13:40;;;;;;;18.30;13.57;;;;;;;;;;4975376;28;20221;-62
2022/01/24 07:16:06;;;;;;;21.40;16.80;;;;;;;;;;4973816;28;20421;-65
2022/01/24 07:20:58;;;;;;;18.73;14.07;;;;;;;;;;4959734;28;20260;-60
2022/01/24 07:23:23;;;;;;;19.53;14.73;;;;;;;;;;4998546;28;20232;-61
2022/01/24 07:25:48;;;;;;;19.00;14.83;;;;;;;;;;4980381;28;20225;-61
2022/01/24 07:28:15;;;;;;;19.20;14.60;;;;;;;;;;4979051;28;20580;-61
2022/01/24 07:30:41;;;;;;;17.37;13.87;;;;;;;;;;4976262;28;20284;-61
2022/01/24 07:33:07;;;;;;;17.83;14.50;;;;;;;;;;4964330;28;20789;-62
2022/01/24 07:35:32;;;;;;;18.23;14.00;;;;;;;;;;4978006;28;20299;-61
2022/01/24 07:37:58;;;;;;;20.27;15.18;;;;;;;;;;4982337;28;20242;-61
2022/01/24 07:40:23;;;;;;;18.70;15.10;;;;;;;;;;4958978;28;20213;-61
2022/01/24 07:42:58;;;;;;;19.53;14.87;;;;;;;;;;4976623;28;20214;-61
2022/01/24 07:45:24;;;;;;;18.60;14.30;;;;;;;;;;4976101;28;20206;-61
2022/01/24 07:47:49;;;;;;;27.90;21.30;;;;;;;;;;4981702;28;20213;-61
2022/01/24 07:50:21;;;;;;;20.40;16.15;;;;;;;;;;4963130;28;20305;-61
2022/01/24 07:52:47;;;;;;;19.20;14.40;;;;;;;;;;4943086;28;20280;-61
2022/01/24 07:55:12;;;;;;;17.60;13.87;;;;;;;;;;4975838;28;20697;-61
2022/01/24 07:57:37;;;;;;;19.33;14.37;;;;;;;;;;4975872;28;20214;-61
2022/01/24 08:00:03;;;;;;;18.33;13.97;;;;;;;;;;4980286;28;20202;-62
2022/01/24 08:02:29;;;;;;;18.17;13.80;;;;;;;;;;4995858;28;20312;-62
2022/01/24 08:04:54;;;;;;;16.40;12.97;;;;;;;;;;4995103;28;20296;-61
2022/01/24 08:07:19;;;;;;;16.40;12.97;;;;;;;;;;4995453;28;20209;-61
2022/01/24 08:09:45;;;;;;;17.70;14.10;;;;;;;;;;4995761;28;20217;-61
2022/01/24 08:12:10;;;;;;;16.93;13.47;;;;;;;;;;4994640;28;20209;-62
2022/01/24 08:14:35;;;;;;;17.53;13.53;;;;;;;;;;4995752;28;20212;-61
2022/01/24 08:17:02;;;;;;;18.60;14.80;;;;;;;;;;4986921;28;20205;-61
2022/01/24 08:19:28;;;;;;;17.03;14.07;;;;;;;;;;4997985;28;20209;-62
2022/01/24 08:21:53;;;;;;;19.20;13.93;;;;;;;;;;5015034;28;20577;-62
2022/01/24 08:24:18;;;;;;;18.13;13.57;;;;;;;;;;4995351;28;20237;-64
2022/01/24 08:26:44;;;;;;;17.77;14.37;;;;;;;;;;4994583;28;20217;-61
2022/01/24 08:29:09;;;;;;;17.33;13.73;;;;;;;;;;4994102;28;20586;-62
2022/01/24 08:31:35;;;;;;;18.67;13.07;;;;;;;;;;4986847;28;21837;-62
2022/01/24 08:34:01;;;;;;;18.27;13.93;;;;;;;;;;4961986;28;20240;-61
2022/01/24 08:36:26;;;;;;;16.53;13.90;;;;;;;;;;4986096;28;20228;-61
2022/01/24 08:38:52;;;;;;;18.67;13.60;;;;;;;;;;4984470;28;20692;-61
2022/01/24 08:41:26;;;;;;;18.93;14.33;;;;;;;;;;4983447;28;20225;-62
2022/01/24 08:43:59;;;;;;;18.95;13.52;;;;;;;;;;4959704;28;20232;-62
2022/01/24 08:46:24;;;;;;;18.13;14.20;;;;;;;;;;4973237;28;20221;-62
2022/01/24 08:48:49;;;;;;;19.07;14.60;;;;;;;;;;4975351;28;20318;-62
2022/01/24 08:51:15;;;;;;;19.53;14.60;;;;;;;;;;4957825;28;20309;-63
2022/01/24 08:53:40;;;;;;;16.87;13.20;;;;;;;;;;4976064;28;20672;-62
2022/01/24 08:56:06;;;;;;;19.50;14.77;;;;;;;;;;4994407;28;20213;-62
2022/01/24 08:58:31;;;;;;;18.30;14.77;;;;;;;;;;4995065;28;20205;-62
2022/01/24 09:00:56;;;;;;;17.70;14.10;;;;;;;;;;4965397;28;20713;-63
2022/01/24 09:03:22;;;;;;;18.87;13.90;;;;;;;;;;4974700;28;20202;-62
2022/01/24 09:05:49;;;;;;;18.83;12.93;;;;;;;;;;4978527;28;20229;-63
2022/01/24 09:08:14;;;;;;;17.93;13.80;;;;;;;;;;4993482;28;20213;-63
2022/01/24 09:10:40;;;;;;;20.00;14.67;;;;;;;;;;4994994;28;20232;-63
2022/01/24 09:13:06;;;;;;;18.97;14.17;;;;;;;;;;4993692;28;20268;-63
2022/01/24 09:15:31;;;;;;;18.93;14.37;;;;;;;;;;4992497;28;20224;-63
2022/01/24 09:17:56;;;;;;;19.50;14.83;;;;;;;;;;4992616;28;20247;-63
2022/01/24 09:20:21;;;;;;;18.80;14.30;;;;;;;;;;4994120;28;20233;-63
2022/01/24 09:22:48;;;;;;;16.73;13.70;;;;;;;;;;4976007;28;20225;-63
2022/01/24 09:25:15;;;;;;;18.77;14.67;;;;;;;;;;4994014;28;20213;-61
2022/01/24 09:27:40;;;;;;;19.40;15.03;;;;;;;;;;4994448;28;20300;-62
2022/01/24 09:30:06;;;;;;;17.20;14.93;;;;;;;;;;4993333;28;20237;-62
2022/01/24 09:32:31;;;;;;;15.67;13.60;;;;;;;;;;5001921;28;20243;-62
2022/01/24 09:34:56;;;;;;;16.80;13.57;;;;;;;;;;5013713;28;20213;-62
2022/01/24 09:37:22;;;;;;;18.23;13.63;;;;;;;;;;4998933;28;20214;-62
2022/01/24 09:39:47;;;;;;;19.63;15.30;;;;;;;;;;4973603;28;20316;-62
2022/01/24 09:42:12;;;;;;;15.43;12.90;;;;;;;;;;4974008;28;20222;-62
2022/01/24 09:44:38;;;;;;;15.50;13.00;;;;;;;;;;4973752;28;20218;-62
2022/01/24 09:47:03;;;;;;;17.88;14.73;;;;;;;;;;4973696;28;20225;-62
2022/01/24 09:49:28;;;;;;;17.38;14.27;;;;;;;;;;4973555;28;20209;-62
2022/01/24 09:51:54;;;;;;;18.30;15.90;;;;;;;;;;4974491;28;20210;-62
2022/01/24 09:54:19;;;;;;;13.03;11.63;;;;;;;;;;4956510;28;20232;-62
2022/01/24 09:56:44;;;;;;;14.87;11.33;;;;;;;;;;4973535;28;20222;-63
2022/01/24 09:59:10;;;;;;;15.48;11.65;;;;;;;;;;4973654;28;20213;-62
2022/01/24 10:01:35;;;;;;;14.20;11.47;;;;;;;;;;4990618;28;20249;-63
2022/01/24 10:04:07;;;;;;;9.50;8.27;;;;;;;;;;4991787;28;20225;-62
2022/01/24 10:06:51;;;;;;;10.37;7.93;;;;;;;;;;4993506;28;20608;-62
2022/01/24 10:09:17;;;;;;;10.27;8.30;;;;;;;;;;4992714;28;20221;-62
2022/01/24 10:11:48;;;;;;;10.73;9.63;;;;;;;;;;4992395;28;20892;-63
2022/01/24 10:16:57;;;;;;;14.60;12.17;;;;;;;;;;4993140;28;20259;-62
2022/01/24 10:19:22;;;;;;;17.10;14.23;;;;;;;;;;4974526;28;20201;-63
2022/01/24 10:21:49;;;;;;;18.63;14.50;;;;;;;;;;4975240;28;20263;-63
2022/01/24 10:24:26;;;;;;;15.77;13.87;;;;;;;;;;5010818;28;20229;-63
2022/01/24 10:27:07;;;;;;;15.73;13.47;;;;;;;;;;5012076;28;20679;-63
2022/01/24 10:29:32;;;;;;;13.90;12.37;;;;;;;;;;4995112;28;20216;-63
2022/01/24 10:31:57;;;;;;;14.17;12.57;;;;;;;;;;5011627;28;20220;-63
2022/01/24 10:34:33;;;;;;;14.80;13.30;;;;;;;;;;5012134;28;20295;-63
2022/01/24 10:36:59;;;;;;;15.23;13.63;;;;;;;;;;5012750;28;20255;-63
2022/01/24 10:44:51;;;;;;;17.60;14.97;;;;;;;;;;5012655;28;20624;-63
2022/01/24 10:47:19;;;;;;;18.67;16.23;;;;;;;;;;5010885;28;20734;-63
2022/01/24 10:49:44;;;;;;;16.70;14.90;;;;;;;;;;5012385;28;20632;-63
2022/01/24 10:52:10;;;;;;;19.37;16.43;;;;;;;;;;4994334;28;20227;-63
2022/01/24 10:54:35;;;;;;;18.20;15.73;;;;;;;;;;5011694;28;20205;-63
2022/01/24 10:57:01;;;;;;;17.70;15.80;;;;;;;;;;5011917;28;20219;-63
2022/01/24 10:59:26;;;;;;;19.60;15.97;;;;;;;;;;5012396;28;20299;-63
2022/01/24 11:01:52;;;;;;;17.07;15.13;;;;;;;;;;4992200;28;20712;-63
2022/01/24 11:04:17;;;;;;;17.50;15.70;;;;;;;;;;4992210;28;20213;-63
2022/01/24 11:06:44;;;;;;;14.93;13.37;;;;;;;;;;4992898;28;20296;-63
2022/01/24 11:09:10;;;;;;;14.23;12.83;;;;;;;;;;4991632;28;20251;-63
2022/01/24 11:11:35;;;;;;;14.40;12.90;;;;;;;;;;4992625;28;20625;-63
2022/01/24 11:14:01;;;;;;;15.23;13.50;;;;;;;;;;4991602;28;20263;-63
2022/01/24 11:16:26;;;;;;;15.70;13.53;;;;;;;;;;4971789;28;20217;-62
2022/01/24 11:18:51;;;;;;;12.07;10.30;;;;;;;;;;4973177;28;20214;-62
2022/01/24 11:21:16;;;;;;;13.80;10.57;;;;;;;;;;4972109;28;20232;-63
2022/01/24 11:23:43;;;;;;;13.87;12.37;;;;;;;;;;4983500;28;20282;-62
2022/01/24 11:26:09;;;;;;;16.70;12.68;;;;;;;;;;5011785;28;20243;-62
2022/01/24 11:28:34;;;;;;;16.03;13.20;;;;;;;;;;4994078;28;20236;-63
2022/01/24 11:31:02;;;;;;;14.47;12.83;;;;;;;;;;4994757;28;20240;-63
2022/01/24 11:33:34;;;;;;;15.05;11.75;;;;;;;;;;4994120;28;20214;-63
2022/01/24 11:36:00;;;;;;;15.57;13.80;;;;;;;;;;4994010;28;20221;-63
2022/01/24 11:38:28;;;;;;;15.43;13.37;;;;;;;;;;5011935;28;20260;-63
2022/01/24 11:40:59;;;;;;;15.27;12.90;;;;;;;;;;5011867;28;20221;-63
2022/01/24 11:43:26;;;;;;;18.30;14.07;;;;;;;;;;5010423;28;20212;-63
2022/01/24 11:46:04;;;;;;;14.47;12.93;;;;;;;;;;5012240;28;20217;-63
2022/01/24 11:48:32;;;;;;;17.73;15.87;;;;;;;;;;5011329;28;20667;-63
2022/01/24 11:50:58;;;;;;;15.97;14.27;;;;;;;;;;4994109;28;20217;-63
2022/01/24 11:53:25;;;;;;;19.00;16.10;;;;;;;;;;5011396;28;20555;-63
2022/01/24 11:55:50;;;;;;;19.77;16.93;;;;;;;;;;5011743;28;20216;-63
2022/01/24 11:58:25;;;;;;;18.33;15.60;;;;;;;;;;4993121;28;20271;-63
2022/01/24 12:00:52;;;;;;;18.17;15.77;;;;;;;;;;4983695;28;20233;-63
2022/01/24 12:03:23;;;;;;;16.70;14.95;;;;;;;;;;4992167;28;20430;-63
2022/01/24 12:05:51;;;;;;;18.47;14.97;;;;;;;;;;4995744;28;20677;-63
2022/01/24 12:08:28;;;;;;;16.33;14.07;;;;;;;;;;4995212;28;20296;-63
2022/01/24 12:10:57;;;;;;;17.67;15.43;;;;;;;;;;4995078;28;20252;-63
2022/01/24 12:13:36;;;;;;;20.13;16.80;;;;;;;;;;4977446;28;20205;-63
2022/01/24 12:16:02;;;;;;;20.85;16.10;;;;;;;;;;4995273;28;20248;-63
2022/01/24 12:18:29;;;;;;;18.47;16.57;;;;;;;;;;4957734;28;20206;-63
2022/01/24 12:20:57;;;;;;;20.40;18.27;;;;;;;;;;4976193;28;20586;-63
2022/01/24 12:23:25;;;;;;;25.93;23.23;;;;;;;;;;4998051;28;20229;-63
2022/01/24 12:25:57;;;;;;;19.03;17.03;;;;;;;;;;5014255;28;20224;-64
2022/01/24 12:28:26;;;;;;;21.27;19.07;;;;;;;;;;5014504;28;20204;-65
2022/01/24 12:30:58;;;;;;;21.27;18.97;;;;;;;;;;5015253;28;20216;-66
2022/01/24 12:33:30;;;;;;;22.90;18.00;;;;;;;;;;5013700;28;20250;-64
2022/01/24 12:35:55;;;;;;;19.90;16.33;;;;;;;;;;5014992;28;20236;-63
2022/01/24 12:38:21;;;;;;;16.97;15.17;;;;;;;;;;4996152;28;20279;-63
2022/01/24 12:40:47;;;;;;;16.67;14.67;;;;;;;;;;5014858;28;20221;-62
2022/01/24 12:43:19;;;;;;;17.98;15.80;;;;;;;;;;5014059;28;20216;-63
2022/01/24 12:48:29;;;;;;;17.37;14.93;;;;;;;;;;4975075;28;20217;-64
2022/01/24 12:50:55;;;;;;;18.83;15.43;;;;;;;;;;4958649;28;20214;-63
2022/01/24 12:53:21;;;;;;;20.33;17.17;;;;;;;;;;4974318;28;20229;-63
2022/01/24 12:55:55;;;;;;;18.03;14.90;;;;;;;;;;4975467;28;20213;-63
2022/01/24 12:58:31;;;;;;;17.53;14.83;;;;;;;;;;4974661;28;20696;-63
2022/01/24 13:00:56;;;;;;;18.17;15.40;;;;;;;;;;4968247;28;20355;-63
2022/01/24 13:03:22;;;;;;;18.83;15.73;;;;;;;;;;4976077;28;20636;-62
2022/01/24 13:05:47;;;;;;;16.73;14.20;;;;;;;;;;4995097;28;20251;-62
2022/01/24 13:08:14;;;;;;;15.68;14.00;;;;;;;;;;4975958;28;20664;-63
2022/01/24 13:10:40;;;;;;;16.33;13.83;;;;;;;;;;4956567;28;20210;-62
2022/01/24 13:13:10;;;;;;;16.93;14.67;;;;;;;;;;4992260;28;20260;-63
2022/01/24 13:21:11;;;;;;;18.67;16.03;;;;;;;;;;4959166;28;20720;-63
2022/01/24 13:23:41;;;;;;;16.57;14.73;;;;;;;;;;4987960;28;20230;-63
2022/01/24 13:26:06;;;;;;;20.27;16.23;;;;;;;;;;5013532;28;20224;-63
2022/01/24 13:28:32;;;;;;;18.77;16.70;;;;;;;;;;4995386;28;20213;-63
2022/01/24 13:31:00;;;;;;;20.60;17.93;;;;;;;;;;5013652;28;20596;-63
2022/01/24 13:33:26;;;;;;;22.43;19.23;;;;;;;;;;5012286;28;20217;-63
2022/01/24 13:35:52;;;;;;;22.30;19.90;;;;;;;;;;4983532;28;20220;-64
2022/01/24 13:38:18;;;;;;;22.13;19.90;;;;;;;;;;4950380;28;20210;-64
2022/01/24 13:40:53;;;;;;;22.25;19.67;;;;;;;;;;4984983;28;20272;-63
2022/01/24 13:43:27;;;;;;;22.13;19.23;;;;;;;;;;4975858;28;20276;-63
2022/01/24 13:45:52;;;;;;;23.83;19.05;;;;;;;;;;4957286;28;20217;-63
2022/01/24 13:48:18;;;;;;;19.52;17.45;;;;;;;;;;4973921;28;20225;-63
2022/01/24 13:50:47;;;;;;;21.03;18.80;;;;;;;;;;4956734;28;20317;-63
2022/01/24 13:53:15;;;;;;;23.33;19.00;;;;;;;;;;4956765;28;20293;-63
2022/01/24 13:55:40;;;;;;;21.42;19.17;;;;;;;;;;4956852;28;20273;-63
2022/01/24 13:58:05;;;;;;;20.00;17.80;;;;;;;;;;4974061;28;20214;-63
2022/01/24 14:00:30;;;;;;;20.23;18.10;;;;;;;;;;4981752;28;20213;-63
2022/01/24 14:03:09;;;;;;;21.47;18.90;;;;;;;;;;4993185;28;20275;-64
2022/01/24 14:05:34;;;;;;;20.70;17.30;;;;;;;;;;4986728;28;20217;-63
2022/01/24 14:08:13;;;;;;;20.50;18.27;;;;;;;;;;4976676;28;20277;-63
2022/01/24 14:10:38;;;;;;;20.77;18.20;;;;;;;;;;4986489;28;20220;-63
2022/01/24 14:13:04;;;;;;;42.27;35.40;;;;;;;;;;4993274;28;20209;-63
2022/01/24 14:15:48;;;;;;;44.17;36.53;;;;;;;;;;4975697;28;20628;-63
2022/01/24 14:18:26;;;;;;;41.57;37.07;;;;;;;;;;4956942;28;20317;-63
2022/01/24 14:20:52;;;;;;;22.93;20.07;;;;;;;;;;4973932;28;20232;-63
2022/01/24 14:23:34;;;;;;;22.27;18.40;;;;;;;;;;4994461;28;20244;-63
2022/01/24 14:25:59;;;;;;;26.20;22.60;;;;;;;;;;4995025;28;20878;-63
2022/01/24 14:28:26;;;;;;;25.50;22.50;;;;;;;;;;4995089;28;20209;-63
2022/01/24 14:30:54;;;;;;;21.63;19.33;;;;;;;;;;4994298;28;20579;-63
2022/01/24 14:33:20;;;;;;;27.20;23.33;;;;;;;;;;4994979;28;20263;-63
2022/01/24 14:35:57;;;;;;;27.17;19.88;;;;;;;;;;5012992;28;20670;-63
2022/01/24 14:38:32;;;;;;;25.38;20.30;;;;;;;;;;5011600;28;20204;-64
2022/01/24 14:41:01;;;;;;;23.73;21.03;;;;;;;;;;5012807;28;20231;-63
2022/01/24 14:46:11;;;;;;;22.27;19.77;;;;;;;;;;4972469;28;20247;-63
2022/01/24 14:48:48;;;;;;;23.33;20.27;;;;;;;;;;4975653;28;20223;-63
2022/01/24 14:51:13;;;;;;;22.93;19.40;;;;;;;;;;4992795;28;20572;-63
2022/01/24 14:53:39;;;;;;;24.00;20.37;;;;;;;;;;4975177;28;20217;-63
2022/01/24 14:56:04;;;;;;;26.77;21.77;;;;;;;;;;4992463;28;20223;-62
2022/01/24 14:58:29;;;;;;;23.83;20.88;;;;;;;;;;4992972;28;20296;-63
2022/01/24 15:00:55;;;;;;;26.43;21.40;;;;;;;;;;4991503;28;20260;-63
2022/01/24 15:03:20;;;;;;;24.63;21.77;;;;;;;;;;4992421;28;20217;-63
2022/01/24 15:05:45;;;;;;;24.70;22.00;;;;;;;;;;4992877;28;20233;-63
2022/01/24 15:08:11;;;;;;;26.67;22.75;;;;;;;;;;4974356;28;20213;-63
2022/01/24 15:10:36;;;;;;;26.00;23.17;;;;;;;;;;4975669;28;20212;-63
2022/01/24 15:13:05;;;;;;;26.93;22.93;;;;;;;;;;4985991;28;20732;-63
2022/01/24 15:15:34;;;;;;;25.90;22.60;;;;;;;;;;4959756;28;20230;-63
2022/01/24 15:26:01;;;;;;;25.73;22.63;;;;;;;;;;5012024;28;20212;-63
2022/01/24 15:28:26;;;;;;;27.00;24.17;;;;;;;;;;5011573;28;20213;-63
2022/01/24 15:30:52;;;;;;;27.55;24.55;;;;;;;;;;4994366;28;20216;-63
2022/01/24 15:33:17;;;;;;;26.83;23.93;;;;;;;;;;5011918;28;20220;-63
2022/01/24 15:35:42;;;;;;;26.83;24.05;;;;;;;;;;5011521;28;20742;-63
2022/01/24 15:38:08;;;;;;;26.97;24.03;;;;;;;;;;5014884;28;20368;-63
2022/01/24 15:40:33;;;;;;;25.03;22.30;;;;;;;;;;4998843;28;20208;-63
2022/01/24 15:43:38;;;;;;;25.77;22.20;;;;;;;;;;5014995;28;20282;-63
2022/01/24 15:46:23;;;;;;;26.10;23.30;;;;;;;;;;5014961;28;20212;-63
2022/01/24 15:48:45;;;;;;;26.20;22.47;;;;;;;;;;5014669;28;20239;-63
2022/01/24 15:51:12;;;;;;;28.43;24.97;;;;;;;;;;5015454;28;20679;-63
2022/01/24 15:53:37;;;;;;;48.75;34.10;;;;;;;;;;5015893;28;20216;-63
2022/01/24 15:56:16;;;;;;;76.32;43.00;;;;;;;;;;4990702;28;20221;-63
2022/01/24 15:58:41;;;;;;;66.85;39.63;;;;;;;;;;4976695;28;20292;-62